Time;durP1;ratioP1;P1;durP2;ratioP2;P2;SDS_P1;SDS_P2;PMS_P1;PMS_P2;Temp;Humidity;BMP_temperature;BMP_pressure;BME280_temperature;BME280_humidity;BME280_pressure;Samples;Min_cycle;Max_cycle;Signal;HPM_P1;HPM_P2
2023/10/23 00:02:24;;;;;;;7.18;5.30;;;;;;;10.85;96.62;100987.53;3619863;39;20051;-68
2023/10/23 00:04:50;;;;;;;8.48;5.15;;;;;;;11.00;97.02;101011.75;3620552;39;20046;-68
2023/10/23 00:07:16;;;;;;;9.55;5.65;;;;;;;11.03;98.28;101011.56;3616589;39;20065;-68
2023/10/23 00:09:42;;;;;;;8.55;5.15;;;;;;;11.03;98.43;101011.56;3615964;39;20054;-68
2023/10/23 00:12:09;;;;;;;6.05;5.03;;;;;;;11.05;98.18;101017.72;3618025;39;20302;-68
2023/10/23 00:14:35;;;;;;;7.70;5.03;;;;;;;11.06;98.57;101019.44;3615375;39;20118;-68
2023/10/23 00:17:01;;;;;;;6.70;5.18;;;;;;;11.00;98.20;101003.69;3617513;39;20062;-67
2023/10/23 00:19:27;;;;;;;7.13;4.88;;;;;;;11.02;97.96;101018.78;3616501;39;20051;-68
2023/10/23 00:21:53;;;;;;;7.88;4.65;;;;;;;11.03;97.70;101019.63;3616344;39;20059;-68
2023/10/23 00:24:19;;;;;;;6.18;4.78;;;;;;;11.02;98.01;101025.97;3617239;39;20051;-68
2023/10/23 00:26:44;;;;;;;6.00;4.40;;;;;;;10.97;97.66;101012.78;3621383;39;20143;-68
2023/10/23 00:29:10;;;;;;;5.47;4.78;;;;;;;10.93;97.76;101012.13;3618595;39;20391;-68
2023/10/23 00:31:36;;;;;;;9.43;4.88;;;;;;;10.87;97.17;101011.63;3616368;39;20054;-68
2023/10/23 00:34:01;;;;;;;5.45;4.72;;;;;;;10.85;96.76;101011.72;3619892;39;20054;-67
2023/10/23 00:36:27;;;;;;;7.15;5.00;;;;;;;10.88;96.65;101025.00;3619556;39;20089;-68
2023/10/23 00:38:52;;;;;;;9.40;5.30;;;;;;;10.86;96.91;101032.28;3619195;39;20066;-68
2023/10/23 00:41:18;;;;;;;5.95;4.72;;;;;;;10.86;97.61;101026.91;3617658;39;20317;-68
2023/10/23 00:43:44;;;;;;;7.97;4.93;;;;;;;10.85;97.27;101035.94;3620187;39;20065;-68
2023/10/23 00:46:17;;;;;;;6.10;4.45;;;;;;;10.84;97.29;101026.09;3618750;39;20377;-68
2023/10/23 00:48:45;;;;;;;6.05;4.50;;;;;;;10.57;96.78;100984.75;3616613;39;20175;-68
2023/10/23 00:51:12;;;;;;;6.70;4.55;;;;;;;10.78;96.49;101028.31;3618037;39;20123;-68
2023/10/23 00:53:41;;;;;;;8.25;4.70;;;;;;;10.76;97.22;101031.09;3619293;39;20051;-68
2023/10/23 00:56:09;;;;;;;5.95;4.13;;;;;;;10.75;97.02;101033.84;3617026;39;20047;-69
2023/10/23 00:58:40;;;;;;;6.80;4.63;;;;;;;10.76;97.68;101038.31;3616974;39;20099;-68
2023/10/23 01:01:12;;;;;;;7.20;4.15;;;;;;;10.73;96.94;101039.34;3619562;39;20397;-68
2023/10/23 01:03:39;;;;;;;8.00;4.57;;;;;;;10.72;97.47;101037.63;3617303;39;20042;-68
2023/10/23 01:06:06;;;;;;;6.47;4.10;;;;;;;10.53;96.54;101015.44;3616165;39;20066;-68
2023/10/23 01:08:32;;;;;;;8.80;4.85;;;;;;;10.41;96.91;100999.09;3615736;39;20042;-68
2023/10/23 01:10:59;;;;;;;5.63;4.40;;;;;;;10.66;97.34;101046.03;3616549;39;20048;-68
2023/10/23 01:13:26;;;;;;;8.48;5.07;;;;;;;10.66;97.82;101052.28;3610201;39;20139;-68
2023/10/23 01:15:52;;;;;;;7.38;4.88;;;;;;;10.68;98.82;101050.34;3620766;39;20051;-68
2023/10/23 01:18:18;;;;;;;9.85;4.75;;;;;;;10.61;98.20;101043.59;3619987;39;20058;-68
2023/10/23 01:20:44;;;;;;;6.15;4.82;;;;;;;10.67;98.19;101047.75;3617564;39;20143;-68
2023/10/23 01:23:11;;;;;;;7.20;4.45;;;;;;;10.61;97.48;101048.97;3618579;39;20087;-68
2023/10/23 01:25:38;;;;;;;8.43;4.75;;;;;;;10.63;97.36;101047.09;3615076;39;20054;-68
2023/10/23 01:28:04;;;;;;;11.02;5.35;;;;;;;10.65;99.19;101049.66;3615701;39;20082;-68
2023/10/23 01:30:31;;;;;;;5.93;4.93;;;;;;;10.66;98.54;101057.66;3615682;39;20047;-68
2023/10/23 01:32:57;;;;;;;8.52;5.43;;;;;;;10.65;99.15;101044.28;3617647;39;20367;-68
2023/10/23 01:35:24;;;;;;;7.97;5.20;;;;;;;10.55;98.29;101021.59;3617147;39;20042;-68
2023/10/23 01:37:49;;;;;;;9.02;4.45;;;;;;;10.36;97.53;100998.47;3618362;39;20267;-68
2023/10/23 01:40:15;;;;;;;6.72;4.60;;;;;;;10.60;97.15;101041.03;3618230;39;20054;-68
2023/10/23 01:42:44;;;;;;;8.60;4.47;;;;;;;10.41;96.05;101020.59;3616999;39;20057;-68
2023/10/23 01:45:10;;;;;;;8.10;4.50;;;;;;;10.49;96.15;101038.09;3616386;39;20057;-68
2023/10/23 01:47:35;;;;;;;9.35;4.60;;;;;;;10.44;95.75;101046.44;3615380;39;20047;-68
2023/10/23 01:50:01;;;;;;;7.85;4.75;;;;;;;10.37;95.70;101043.22;3619489;39;20054;-67
2023/10/23 01:52:27;;;;;;;5.55;4.55;;;;;;;10.33;95.51;101043.47;3617855;39;20058;-68
2023/10/23 01:54:53;;;;;;;7.53;4.60;;;;;;;10.28;95.19;101038.38;3618901;39;20059;-68
2023/10/23 01:57:19;;;;;;;8.68;4.55;;;;;;;10.14;95.67;101024.81;3618105;39;20560;-68
2023/10/23 01:59:45;;;;;;;6.43;4.40;;;;;;;10.22;95.35;101039.56;3609060;39;20051;-68
2023/10/23 02:02:11;;;;;;;7.07;4.78;;;;;;;10.17;95.76;101027.34;3619232;39;20043;-68
2023/10/23 02:04:39;;;;;;;7.25;5.13;;;;;;;10.18;95.87;101029.06;3617371;39;20358;-67
2023/10/23 02:07:05;;;;;;;7.78;6.15;;;;;;;10.16;95.21;101039.03;3618676;39;20039;-68
2023/10/23 02:09:32;;;;;;;9.65;6.50;;;;;;;10.10;95.14;101037.56;3605774;39;20037;-68
2023/10/23 02:11:58;;;;;;;11.15;7.80;;;;;;;10.08;94.54;101034.09;3617603;39;20351;-68
2023/10/23 02:14:23;;;;;;;7.70;6.30;;;;;;;10.02;95.13;101038.94;3616550;39;20108;-68
2023/10/23 02:16:49;;;;;;;10.55;5.55;;;;;;;10.07;96.04;101042.25;3615704;39;20385;-69
2023/10/23 02:19:15;;;;;;;8.95;5.30;;;;;;;10.03;95.31;101040.69;3618199;39;20046;-68
2023/10/23 02:21:40;;;;;;;7.70;4.72;;;;;;;9.96;95.44;101041.03;3617643;39;20066;-68
2023/10/23 02:24:06;;;;;;;5.72;5.18;;;;;;;9.97;94.88;101061.56;3617214;39;20107;-68
2023/10/23 02:26:32;;;;;;;9.35;5.30;;;;;;;9.96;94.94;101067.03;3615861;39;20054;-68
2023/10/23 02:28:58;;;;;;;6.07;4.68;;;;;;;9.92;95.00;101063.63;3617329;39;20062;-69
2023/10/23 02:31:24;;;;;;;8.45;4.57;;;;;;;9.88;95.02;101064.75;3617836;39;20054;-68
2023/10/23 02:33:49;;;;;;;8.02;4.97;;;;;;;9.88;94.61;101067.44;3615818;39;20085;-66
2023/10/23 02:36:16;;;;;;;6.22;4.50;;;;;;;9.85;94.63;101062.22;3608994;39;20050;-68
2023/10/23 02:38:44;;;;;;;6.25;5.35;;;;;;;9.81;94.16;101066.03;3617312;39;20063;-68
2023/10/23 02:41:10;;;;;;;8.75;6.32;;;;;;;9.80;94.55;101067.00;3617092;39;20051;-66
2023/10/23 02:43:36;;;;;;;7.30;5.03;;;;;;;9.79;95.61;101070.63;3614211;39;20038;-68
2023/10/23 02:46:04;;;;;;;9.02;6.05;;;;;;;9.80;95.54;101056.25;3618585;39;20102;-68
2023/10/23 02:48:30;;;;;;;7.63;5.03;;;;;;;9.80;95.84;101056.25;3619882;39;20377;-68
2023/10/23 02:50:57;;;;;;;10.38;5.47;;;;;;;9.79;95.35;101067.94;3617388;39;20333;-68
2023/10/23 02:53:24;;;;;;;9.50;5.90;;;;;;;9.78;95.50;101068.91;3618041;39;20282;-66
2023/10/23 02:55:51;;;;;;;8.70;5.57;;;;;;;9.75;95.23;101071.75;3615804;39;20051;-68
2023/10/23 02:58:18;;;;;;;7.25;4.50;;;;;;;9.70;94.86;101055.00;3612771;39;20046;-66
2023/10/23 03:00:44;;;;;;;6.10;4.28;;;;;;;9.68;94.07;101070.34;3616309;39;20065;-68
2023/10/23 03:03:10;;;;;;;9.15;4.97;;;;;;;9.65;94.47;101062.47;3617642;39;20416;-69
2023/10/23 03:05:37;;;;;;;9.30;4.90;;;;;;;9.64;94.45;101066.06;3616464;39;20049;-68
2023/10/23 03:08:05;;;;;;;9.25;4.90;;;;;;;9.61;94.74;101064.44;3617834;39;20091;-68
2023/10/23 03:10:33;;;;;;;4.85;4.22;;;;;;;9.57;93.67;101064.69;3615591;39;20055;-68
2023/10/23 03:12:58;;;;;;;5.85;4.30;;;;;;;9.55;93.80;101067.47;3619082;39;20062;-68
2023/10/23 03:15:24;;;;;;;6.68;4.22;;;;;;;9.44;93.62;101062.66;3607111;39;20467;-68
2023/10/23 03:17:51;;;;;;;5.55;4.10;;;;;;;9.49;94.10;101068.66;3617025;39;20066;-68
2023/10/23 03:20:17;;;;;;;6.57;4.38;;;;;;;9.45;93.57;101075.13;3616107;39;20088;-66
2023/10/23 03:22:43;;;;;;;6.68;3.85;;;;;;;9.43;93.42;101068.97;3618221;39;20066;-68
2023/10/23 03:25:09;;;;;;;5.40;4.10;;;;;;;9.39;92.58;101071.91;3616544;39;20106;-68
2023/10/23 03:27:35;;;;;;;7.68;4.18;;;;;;;9.35;93.80;101065.81;3617127;39;20091;-68
2023/10/23 03:30:01;;;;;;;6.43;4.07;;;;;;;9.35;92.86;101070.31;3616941;39;20059;-68
2023/10/23 03:32:27;;;;;;;7.35;4.03;;;;;;;9.26;93.85;101052.88;3616424;39;20069;-68
2023/10/23 03:34:52;;;;;;;7.20;3.95;;;;;;;9.30;93.11;101067.91;3617197;39;20107;-68
2023/10/23 03:37:18;;;;;;;4.75;3.97;;;;;;;9.30;93.16;101062.53;3617272;39;20383;-66
2023/10/23 03:39:44;;;;;;;7.70;4.00;;;;;;;9.27;93.41;101076.09;3616104;39;20067;-67
2023/10/23 03:42:09;;;;;;;6.55;4.07;;;;;;;9.26;93.86;101072.56;3615793;39;20053;-68
2023/10/23 03:44:36;;;;;;;8.00;4.20;;;;;;;9.24;93.09;101079.81;3616627;39;20042;-68
2023/10/23 03:47:02;;;;;;;4.82;4.28;;;;;;;9.23;94.15;101078.09;3618630;39;20063;-68
2023/10/23 03:49:28;;;;;;;5.95;4.28;;;;;;;9.22;93.19;101075.47;3615423;39;20058;-66
2023/10/23 03:51:54;;;;;;;4.97;3.75;;;;;;;9.18;93.47;101073.91;3614783;39;20069;-66
2023/10/23 03:54:19;;;;;;;6.30;3.95;;;;;;;9.19;93.15;101071.13;3618013;39;20278;-68
2023/10/23 03:56:45;;;;;;;5.00;3.78;;;;;;;9.18;93.85;101069.41;3614296;39;20061;-68
2023/10/23 03:59:11;;;;;;;7.05;3.85;;;;;;;9.16;93.70;101073.09;3615914;39;20081;-68
2023/10/23 04:01:36;;;;;;;6.40;4.80;;;;;;;9.19;94.13;101078.31;3616124;39;20057;-68
2023/10/23 04:04:02;;;;;;;9.95;4.25;;;;;;;9.19;94.92;101078.31;3606522;39;20070;-68
2023/10/23 04:06:27;;;;;;;6.10;4.30;;;;;;;9.17;94.31;101080.22;3616331;39;20062;-68
2023/10/23 04:08:53;;;;;;;6.93;4.25;;;;;;;9.15;94.00;101079.41;3616711;39;20339;-68
2023/10/23 04:11:19;;;;;;;6.57;4.10;;;;;;;9.09;95.01;101066.31;3615975;39;20051;-68
2023/10/23 04:13:45;;;;;;;6.25;3.97;;;;;;;9.13;94.62;101078.63;3617745;39;20063;-68
2023/10/23 04:16:10;;;;;;;6.32;4.30;;;;;;;9.12;94.28;101074.22;3614847;39;20042;-68
2023/10/23 04:18:36;;;;;;;7.15;4.75;;;;;;;9.05;94.80;101063.81;3615840;39;20312;-67
2023/10/23 04:21:08;;;;;;;8.43;4.18;;;;;;;9.06;93.91;101076.25;3616226;39;20053;-67
2023/10/23 04:23:36;;;;;;;8.35;4.35;;;;;;;9.04;94.13;101080.84;3615789;39;20043;-66
2023/10/23 04:26:02;;;;;;;5.25;3.80;;;;;;;9.02;94.28;101085.41;3616079;39;20378;-66
2023/10/23 04:28:29;;;;;;;6.65;4.20;;;;;;;8.98;93.65;101081.16;3617132;39;20465;-66
2023/10/23 04:30:55;;;;;;;5.32;3.78;;;;;;;8.95;92.77;101083.13;3616575;39;20377;-66
2023/10/23 04:33:22;;;;;;;6.43;3.70;;;;;;;8.79;93.41;101067.81;3615922;39;20058;-67
2023/10/23 04:35:56;;;;;;;6.47;3.85;;;;;;;8.91;92.75;101087.78;3605898;39;20054;-66
2023/10/23 04:38:23;;;;;;;5.13;3.67;;;;;;;8.65;93.12;101048.88;3619630;39;20050;-67
2023/10/23 04:40:50;;;;;;;6.97;4.40;;;;;;;8.84;93.27;101078.31;3614853;39;20051;-67
2023/10/23 04:43:16;;;;;;;6.97;4.38;;;;;;;8.88;93.68;101095.09;3618447;39;20055;-67
2023/10/23 04:45:42;;;;;;;5.35;4.00;;;;;;;8.87;94.27;101096.06;3615469;39;20062;-67
2023/10/23 04:48:09;;;;;;;5.30;3.92;;;;;;;8.87;94.38;101085.31;3614038;39;20066;-67
2023/10/23 04:50:38;;;;;;;7.43;3.83;;;;;;;8.84;93.72;101083.66;3603140;39;20133;-67
2023/10/23 04:53:04;;;;;;;5.55;3.42;;;;;;;8.81;93.68;101081.13;3616304;39;20106;-67
2023/10/23 04:55:38;;;;;;;5.22;4.05;;;;;;;8.78;93.31;101070.56;3615388;39;20058;-66
2023/10/23 04:58:05;;;;;;;6.95;3.38;;;;;;;8.77;93.81;101080.44;3617029;39;20071;-66
2023/10/23 05:00:35;;;;;;;5.13;3.40;;;;;;;8.74;92.88;101074.34;3616558;39;20065;-66
2023/10/23 05:03:01;;;;;;;4.32;3.90;;;;;;;8.66;92.73;101060.47;3615293;39;20051;-66
2023/10/23 05:05:27;;;;;;;4.57;3.15;;;;;;;8.70;92.47;101070.97;3616972;39;20046;-67
2023/10/23 05:07:52;;;;;;;5.65;3.50;;;;;;;8.71;92.63;101079.88;3615936;39;20051;-66
2023/10/23 05:10:18;;;;;;;7.15;3.50;;;;;;;8.68;93.12;101080.03;3617619;39;20333;-67
2023/10/23 05:12:45;;;;;;;3.83;3.28;;;;;;;8.44;92.76;101048.16;3617786;39;20071;-66
2023/10/23 05:15:11;;;;;;;5.75;3.70;;;;;;;8.64;93.05;101070.41;3617526;39;20058;-66
2023/10/23 05:17:36;;;;;;;9.38;4.15;;;;;;;8.66;94.01;101076.53;3617526;39;20062;-67
2023/10/23 05:20:03;;;;;;;8.07;4.40;;;;;;;8.65;94.18;101073.00;3618565;39;20058;-67
2023/10/23 05:22:28;;;;;;;7.97;4.07;;;;;;;8.69;94.73;101071.03;3619291;39;20047;-67
2023/10/23 05:24:54;;;;;;;5.75;4.05;;;;;;;8.70;94.01;101072.78;3618254;39;20053;-67
2023/10/23 05:27:19;;;;;;;7.28;4.25;;;;;;;8.67;93.92;101070.25;3617198;39;20062;-67
2023/10/23 05:29:45;;;;;;;4.70;3.92;;;;;;;8.63;92.82;101074.91;3617395;39;20061;-67
2023/10/23 05:32:12;;;;;;;9.00;4.10;;;;;;;8.49;93.17;101043.41;3615304;39;20047;-67
2023/10/23 05:34:37;;;;;;;5.47;3.78;;;;;;;8.55;92.18;101064.56;3608914;39;20050;-67
2023/10/23 05:37:03;;;;;;;7.38;4.20;;;;;;;8.56;92.43;101074.34;3618883;39;20050;-67
2023/10/23 05:39:29;;;;;;;8.93;3.92;;;;;;;8.54;93.00;101073.53;3617768;39;20301;-67
2023/10/23 05:41:55;;;;;;;7.15;4.25;;;;;;;8.51;92.46;101073.69;3616820;39;20054;-67
2023/10/23 05:44:20;;;;;;;9.57;4.55;;;;;;;8.51;93.26;101075.50;3616324;39;20047;-67
2023/10/23 05:46:46;;;;;;;10.65;4.55;;;;;;;8.49;92.56;101080.06;3615550;39;20421;-67
2023/10/23 05:49:12;;;;;;;8.57;4.15;;;;;;;8.48;93.02;101073.84;3619268;39;20078;-67
2023/10/23 05:51:37;;;;;;;13.60;4.45;;;;;;;8.48;92.99;101081.00;3617269;39;20694;-67
2023/10/23 05:54:03;;;;;;;10.63;4.13;;;;;;;8.46;92.37;101080.22;3616704;39;20051;-67
2023/10/23 05:56:29;;;;;;;14.18;5.05;;;;;;;8.45;92.62;101079.34;3616398;39;20150;-67
2023/10/23 05:58:55;;;;;;;11.57;4.63;;;;;;;8.44;92.06;101079.44;3615761;39;20047;-67
2023/10/23 06:01:20;;;;;;;6.85;4.30;;;;;;;8.43;92.13;101075.00;3618311;39;20053;-67
2023/10/23 06:03:46;;;;;;;11.27;4.50;;;;;;;8.43;92.99;101075.88;3617132;39;20070;-67
2023/10/23 06:06:12;;;;;;;7.30;4.28;;;;;;;8.38;92.01;101064.53;3618031;39;20086;-67
2023/10/23 06:08:39;;;;;;;11.23;4.53;;;;;;;8.40;92.63;101070.66;3608068;39;20082;-67
2023/10/23 06:11:11;;;;;;;10.32;4.38;;;;;;;8.39;92.11;101074.28;3614582;39;20354;-67
2023/10/23 06:13:37;;;;;;;13.32;4.85;;;;;;;8.37;92.30;101068.09;3615892;39;20062;-68
2023/10/23 06:16:04;;;;;;;15.55;4.95;;;;;;;8.40;92.50;101070.66;3616649;39;20122;-68
2023/10/23 06:18:35;;;;;;;11.05;5.45;;;;;;;8.42;92.46;101074.13;3617520;39;20294;-66
2023/10/23 06:21:04;;;;;;;10.63;4.63;;;;;;;8.42;92.21;101075.97;3615290;39;20054;-66
2023/10/23 06:23:38;;;;;;;11.38;4.72;;;;;;;8.44;92.33;101071.41;3610104;39;20088;-66
2023/10/23 06:26:08;;;;;;;8.40;4.43;;;;;;;8.47;92.90;101076.59;3616680;39;20042;-66
2023/10/23 06:28:35;;;;;;;9.45;4.57;;;;;;;8.47;92.86;101072.13;3605478;39;20749;-66
2023/10/23 06:31:10;;;;;;;14.52;5.00;;;;;;;8.50;93.48;101071.06;3614574;39;20305;-66
2023/10/23 06:33:42;;;;;;;15.77;5.45;;;;;;;8.54;93.78;101072.69;3617408;39;20363;-65
2023/10/23 06:36:09;;;;;;;11.35;4.97;;;;;;;8.58;95.09;101084.97;3610868;39;20055;-65
2023/10/23 06:38:35;;;;;;;10.15;4.95;;;;;;;8.50;95.88;101063.94;3614639;39;20038;-65
2023/10/23 06:41:04;;;;;;;7.32;4.82;;;;;;;8.64;95.51;101083.81;3614286;39;20081;-66
2023/10/23 06:43:34;;;;;;;7.45;4.50;;;;;;;8.66;95.39;101081.91;3615042;39;20469;-66
2023/10/23 06:46:00;;;;;;;9.75;4.80;;;;;;;8.68;95.04;101082.69;3616477;39;20047;-66
2023/10/23 06:48:25;;;;;;;4.85;4.10;;;;;;;8.72;95.14;101081.59;3615898;39;20047;-66
2023/10/23 06:50:51;;;;;;;6.22;4.00;;;;;;;8.74;94.83;101085.06;3618356;39;20058;-66
2023/10/23 06:53:17;;;;;;;9.38;4.35;;;;;;;8.75;94.79;101076.09;3616291;39;20367;-65
2023/10/23 06:55:51;;;;;;;7.78;4.15;;;;;;;8.79;95.29;101066.97;3614419;39;20078;-66
2023/10/23 06:58:19;;;;;;;4.65;3.83;;;;;;;8.84;95.70;101070.25;3605479;39;20351;-66
2023/10/23 07:00:46;;;;;;;4.75;4.00;;;;;;;8.91;95.70;101070.81;3614729;39;20362;-66
2023/10/23 07:03:13;;;;;;;7.50;3.83;;;;;;;8.96;95.95;101074.13;3615567;39;20429;-66
2023/10/23 07:05:40;;;;;;;6.38;4.20;;;;;;;9.00;96.20;101071.22;3616785;39;20067;-66
2023/10/23 07:08:06;;;;;;;8.20;4.07;;;;;;;9.07;95.78;101077.16;3614586;39;20374;-66
2023/10/23 07:10:34;;;;;;;9.02;4.10;;;;;;;9.05;95.93;101057.59;3615634;39;20054;-66
2023/10/23 07:12:59;;;;;;;8.02;4.32;;;;;;;9.20;96.81;101077.38;3615921;39;20043;-66
2023/10/23 07:15:25;;;;;;;9.63;4.68;;;;;;;9.28;96.72;101067.09;3614807;39;20061;-66
2023/10/23 07:17:50;;;;;;;8.30;4.57;;;;;;;9.36;97.56;101072.94;3610415;39;20047;-66
2023/10/23 07:20:17;;;;;;;11.77;4.53;;;;;;;9.45;97.44;101063.50;3615233;39;20047;-66
2023/10/23 07:22:43;;;;;;;7.53;4.80;;;;;;;9.54;98.29;101073.75;3618599;39;20051;-67
2023/10/23 07:25:11;;;;;;;8.18;5.25;;;;;;;9.64;98.05;101064.28;3615100;39;20047;-66
2023/10/23 07:27:37;;;;;;;6.22;5.38;;;;;;;9.77;98.81;101064.47;3616240;39;20077;-66
2023/10/23 07:30:07;;;;;;;7.50;5.22;;;;;;;9.88;99.26;101072.81;3615247;39;20073;-66
2023/10/23 07:32:35;;;;;;;9.45;5.28;;;;;;;10.02;98.59;101076.53;3618991;39;20057;-66
2023/10/23 07:35:04;;;;;;;7.68;4.75;;;;;;;10.12;98.31;101078.66;3616655;39;20297;-66
2023/10/23 07:37:30;;;;;;;8.52;5.03;;;;;;;10.24;97.66;101079.75;3614479;39;20120;-66
2023/10/23 07:39:57;;;;;;;6.45;4.60;;;;;;;10.34;97.42;101078.34;3616411;39;20059;-66
2023/10/23 07:42:23;;;;;;;10.93;5.50;;;;;;;10.40;97.15;101066.34;3615181;39;20112;-66
2023/10/23 07:44:49;;;;;;;9.27;5.28;;;;;;;10.57;96.24;101084.22;3616390;39;20119;-65
2023/10/23 07:47:15;;;;;;;10.68;5.22;;;;;;;10.64;95.56;101089.13;3615283;39;20059;-68
2023/10/23 07:49:41;;;;;;;8.60;5.32;;;;;;;10.75;95.76;101093.91;3614129;39;20824;-67
2023/10/23 07:52:07;;;;;;;9.00;4.80;;;;;;;10.84;95.39;101087.09;3615912;39;20062;-67
2023/10/23 07:54:33;;;;;;;9.77;5.50;;;;;;;10.89;94.31;101083.19;3606988;39;20050;-67
2023/10/23 07:56:59;;;;;;;9.68;5.05;;;;;;;10.98;94.31;101083.63;3614663;39;20069;-67
2023/10/23 07:59:26;;;;;;;6.25;4.82;;;;;;;11.00;93.67;101084.38;3614425;39;20058;-65
2023/10/23 08:01:52;;;;;;;9.70;5.63;;;;;;;11.15;94.94;101081.63;3615540;39;20050;-68
2023/10/23 08:04:18;;;;;;;10.82;5.85;;;;;;;11.28;94.50;101081.75;3613824;39;20580;-67
2023/10/23 08:06:44;;;;;;;12.23;5.93;;;;;;;11.42;94.41;101077.34;3610874;39;20454;-66
2023/10/23 08:09:11;;;;;;;9.65;5.32;;;;;;;11.56;93.55;101074.69;3611544;39;20055;-66
2023/10/23 08:11:37;;;;;;;10.80;5.10;;;;;;;11.53;92.37;101054.19;3612496;39;20063;-66
2023/10/23 08:14:02;;;;;;;12.75;4.78;;;;;;;11.74;92.06;101056.53;3613440;39;20065;-68
2023/10/23 08:16:28;;;;;;;11.13;5.03;;;;;;;11.77;91.49;101046.41;3612161;39;20070;-66
2023/10/23 08:18:55;;;;;;;9.40;4.97;;;;;;;11.97;91.11;101066.72;3613774;39;20057;-66
2023/10/23 08:21:22;;;;;;;7.80;4.95;;;;;;;12.05;90.69;101060.84;3613504;39;20327;-67
2023/10/23 08:23:54;;;;;;;9.80;5.22;;;;;;;12.11;89.53;101068.53;3615203;39;20135;-65
2023/10/23 08:26:21;;;;;;;11.27;5.05;;;;;;;12.19;90.58;101074.31;3613082;39;20155;-68
2023/10/23 08:28:46;;;;;;;7.53;4.60;;;;;;;12.20;89.12;101067.94;3614135;39;20057;-66
2023/10/23 08:31:12;;;;;;;12.65;5.32;;;;;;;12.27;89.26;101071.09;3615864;39;20047;-66
2023/10/23 08:33:38;;;;;;;8.48;5.00;;;;;;;12.36;90.16;101077.72;3608402;39;20059;-66
2023/10/23 08:36:04;;;;;;;7.35;4.68;;;;;;;12.42;89.75;101080.03;3614706;39;20057;-66
2023/10/23 08:38:30;;;;;;;10.25;4.88;;;;;;;12.36;89.83;101056.16;3614961;39;20347;-66
2023/10/23 08:40:55;;;;;;;7.05;4.65;;;;;;;12.59;89.75;101077.09;3615891;39;20058;-66
2023/10/23 08:43:23;;;;;;;8.57;4.20;;;;;;;12.67;87.09;101085.53;3616663;39;20434;-66
2023/10/23 08:45:54;;;;;;;10.32;4.50;;;;;;;12.74;nan;101078.75;3603066;39;20373;-66
2023/10/23 08:48:19;;;;;;;10.95;4.75;;;;;;;12.93;87.86;101080.22;3616069;39;20045;-66
2023/10/23 08:50:46;;;;;;;10.27;4.35;;;;;;;13.07;86.96;101071.19;3616106;39;20058;-66
2023/10/23 08:53:15;;;;;;;8.50;4.22;;;;;;;13.11;86.89;101057.38;3604124;39;20084;-67
2023/10/23 08:55:42;;;;;;;10.63;3.83;;;;;;;13.29;83.48;101071.47;3602939;39;20073;-66
2023/10/23 08:58:13;;;;;;;11.93;4.05;;;;;;;13.45;85.18;101068.56;3613889;39;20042;-66
2023/10/23 09:00:39;;;;;;;12.65;4.60;;;;;;;13.62;85.59;101073.63;3616141;39;20047;-66
2023/10/23 09:03:09;;;;;;;9.85;4.18;;;;;;;13.77;84.50;101076.25;3618236;39;20057;-66
2023/10/23 09:05:35;;;;;;;7.97;3.95;;;;;;;13.88;84.19;101057.41;3616288;39;20062;-66
2023/10/23 09:08:02;;;;;;;8.60;4.10;;;;;;;14.07;83.84;101068.59;3619275;39;20407;-66
2023/10/23 09:10:27;;;;;;;10.25;3.90;;;;;;;14.16;81.99;101065.22;3616120;39;20059;-66
2023/10/23 09:12:56;;;;;;;9.50;4.00;;;;;;;14.20;80.52;101065.88;3619810;39;20062;-66
2023/10/23 09:15:24;;;;;;;10.52;4.22;;;;;;;14.28;80.53;101054.50;3616791;39;20043;-66
2023/10/23 09:17:51;;;;;;;10.13;3.88;;;;;;;14.30;79.65;101061.53;3610863;39;20087;-66
2023/10/23 09:20:18;;;;;;;12.95;3.97;;;;;;;14.41;81.15;101058.03;3619938;39;20038;-67
2023/10/23 09:22:47;;;;;;;17.92;4.88;;;;;;;14.48;80.56;101050.31;3617435;39;20316;-65
2023/10/23 09:25:18;;;;;;;10.27;3.58;;;;;;;14.55;79.69;101052.47;3616207;39;20094;-65
2023/10/23 09:27:45;;;;;;;10.45;3.90;;;;;;;14.50;78.22;101049.22;3617070;39;20484;-65
2023/10/23 09:30:13;;;;;;;14.02;4.50;;;;;;;14.55;79.25;101048.91;3616966;39;20104;-65
2023/10/23 09:32:40;;;;;;;9.10;3.80;;;;;;;14.58;79.40;101049.53;3614618;39;20111;-65
2023/10/23 09:35:08;;;;;;;6.57;3.63;;;;;;;14.66;79.84;101038.16;3613748;39;20466;-65
2023/10/23 09:37:36;;;;;;;11.70;4.10;;;;;;;14.76;80.03;101033.75;3603201;39;20054;-65
2023/10/23 09:40:11;;;;;;;9.98;3.72;;;;;;;14.63;80.34;101001.38;3615438;39;20119;-65
2023/10/23 09:42:38;;;;;;;8.38;3.40;;;;;;;14.37;77.83;100973.56;3616046;39;20424;-65
2023/10/23 09:45:04;;;;;;;14.45;4.00;;;;;;;14.72;78.99;101031.41;3617893;39;20405;-65
2023/10/23 09:47:32;;;;;;;11.75;3.65;;;;;;;14.68;78.57;101025.34;3616766;39;20339;-65
2023/10/23 09:49:59;;;;;;;12.27;3.95;;;;;;;14.71;79.57;101029.69;3618612;39;20115;-65
2023/10/23 09:52:27;;;;;;;11.63;4.38;;;;;;;14.76;79.61;101039.19;3616571;39;20046;-66
2023/10/23 09:55:04;;;;;;;12.75;4.38;;;;;;;14.78;79.12;101039.03;3620258;39;20053;-66
2023/10/23 09:57:39;;;;;;;8.68;3.67;;;;;;;14.83;79.54;101034.16;3617300;39;20068;-66
2023/10/23 10:00:14;;;;;;;8.18;3.63;;;;;;;14.89;79.08;101038.25;3615474;39;20391;-66
2023/10/23 10:02:54;;;;;;;10.43;3.58;;;;;;;14.80;78.49;101032.53;3605383;39;20066;-65
2023/10/23 10:05:49;;;;;;;8.93;3.03;;;;;;;14.89;77.83;101036.41;3614617;39;20058;-65
2023/10/23 10:08:19;;;;;;;7.18;3.40;;;;;;;14.86;78.33;101036.63;3614082;39;20046;-65
2023/10/23 10:10:49;;;;;;;8.90;3.10;;;;;;;14.81;78.79;101019.88;3616761;39;20047;-65
2023/10/23 10:13:16;;;;;;;8.05;3.30;;;;;;;14.91;78.68;101030.88;3613777;39;20042;-65
2023/10/23 10:15:44;;;;;;;12.30;3.47;;;;;;;14.93;79.47;101028.91;3621069;39;20051;-65
2023/10/23 10:18:11;;;;;;;12.00;3.42;;;;;;;14.89;78.04;101022.84;3615626;39;20081;-65
2023/10/23 10:20:41;;;;;;;10.32;3.78;;;;;;;14.90;78.03;101024.56;3616200;39;20065;-65
2023/10/23 10:23:19;;;;;;;8.63;3.08;;;;;;;14.92;77.63;101030.75;3614869;39;20067;-65
2023/10/23 10:25:46;;;;;;;10.68;3.55;;;;;;;14.95;79.38;101011.56;3614627;39;20412;-65
2023/10/23 10:28:14;;;;;;;8.15;3.10;;;;;;;15.09;79.19;101016.75;3613939;39;20381;-65
2023/10/23 10:30:50;;;;;;;9.70;3.33;;;;;;;15.06;78.09;101003.47;3615163;39;20071;-65
2023/10/23 10:33:23;;;;;;;12.77;3.35;;;;;;;15.12;77.06;101006.69;3617349;39;20297;-64
2023/10/23 10:35:52;;;;;;;8.80;3.17;;;;;;;15.09;76.38;101010.47;3615638;39;20051;-65
2023/10/23 10:38:23;;;;;;;7.82;3.75;;;;;;;15.08;75.92;100996.09;3613737;39;20055;-65
2023/10/23 10:41:04;;;;;;;9.65;3.55;;;;;;;15.11;75.92;100999.53;3614833;39;20063;-65
2023/10/23 10:43:37;;;;;;;10.25;3.67;;;;;;;15.19;76.30;101005.22;3615216;39;20046;-65
2023/10/23 10:46:28;;;;;;;12.93;3.63;;;;;;;15.23;75.48;100994.03;3615236;39;20046;-65
2023/10/23 10:48:55;;;;;;;11.90;4.30;;;;;;;15.25;75.37;100988.47;3615538;39;20055;-65
2023/10/23 10:51:27;;;;;;;9.98;4.28;;;;;;;15.25;74.71;100981.22;3613974;39;20120;-66
2023/10/23 10:54:12;;;;;;;8.90;3.97;;;;;;;15.35;75.58;100975.97;3613982;39;20145;-65
2023/10/23 10:56:37;;;;;;;11.95;3.80;;;;;;;15.37;74.04;100973.97;3614194;39;20106;-65
2023/10/23 10:59:05;;;;;;;11.07;4.25;;;;;;;15.41;74.11;100969.16;3614196;39;20039;-64
2023/10/23 11:01:31;;;;;;;9.35;4.10;;;;;;;15.31;74.17;100944.66;3614285;39;20087;-64
2023/10/23 11:03:57;;;;;;;9.98;3.78;;;;;;;15.46;74.66;100956.13;3615126;39;20047;-64
2023/10/23 11:06:24;;;;;;;12.60;3.58;;;;;;;15.53;74.33;100941.09;3607514;39;20058;-65
2023/10/23 11:08:51;;;;;;;9.70;3.35;;;;;;;15.58;75.02;100933.47;3613477;39;20055;-65
2023/10/23 11:11:17;;;;;;;10.35;4.07;;;;;;;15.65;73.64;100931.13;3613992;39;20054;-65
2023/10/23 11:13:43;;;;;;;9.20;3.80;;;;;;;15.64;73.86;100923.97;3617039;39;20190;-65
2023/10/23 11:16:11;;;;;;;10.75;3.40;;;;;;;15.75;73.74;100932.97;3614729;39;20462;-66
2023/10/23 11:18:37;;;;;;;8.52;3.75;;;;;;;15.51;73.14;100900.59;3618032;39;20062;-66
2023/10/23 11:21:05;;;;;;;9.75;3.47;;;;;;;15.68;74.00;100914.63;3619696;39;20049;-65
2023/10/23 11:23:31;;;;;;;9.00;3.33;;;;;;;15.76;74.60;100926.56;3613630;39;20047;-65
2023/10/23 11:25:57;;;;;;;9.27;3.72;;;;;;;15.76;73.59;100926.56;3614268;39;20087;-65
2023/10/23 11:28:25;;;;;;;9.25;3.00;;;;;;;15.82;74.16;100908.94;3613481;39;20047;-66